sensor_id;sensor_type;location;lat;lon;timestamp;P1;durP1;ratioP1;P2;durP2;ratioP2
33094;SDS011;19459;53.044;8.910;2023-07-29T00:02:10;34.75;;;22.63;;
33094;SDS011;19459;53.044;8.910;2023-07-29T00:04:36;30.05;;;20.02;;
33094;SDS011;19459;53.044;8.910;2023-07-29T00:07:02;27.33;;;19.70;;
33094;SDS011;19459;53.044;8.910;2023-07-29T00:09:28;32.05;;;20.45;;
33094;SDS011;19459;53.044;8.910;2023-07-29T00:11:53;23.70;;;16.80;;
33094;SDS011;19459;53.044;8.910;2023-07-29T00:14:19;27.40;;;17.95;;
33094;SDS011;19459;53.044;8.910;2023-07-29T00:16:45;32.55;;;21.95;;
33094;SDS011;19459;53.044;8.910;2023-07-29T00:19:11;25.80;;;18.88;;
33094;SDS011;19459;53.044;8.910;2023-07-29T00:21:37;28.33;;;18.67;;
33094;SDS011;19459;53.044;8.910;2023-07-29T00:24:06;28.70;;;18.70;;
33094;SDS011;19459;53.044;8.910;2023-07-29T00:26:32;24.20;;;17.20;;
33094;SDS011;19459;53.044;8.910;2023-07-29T00:29:00;34.55;;;21.48;;
33094;SDS011;19459;53.044;8.910;2023-07-29T00:31:26;47.92;;;22.20;;
33094;SDS011;19459;53.044;8.910;2023-07-29T00:33:51;33.50;;;22.17;;
33094;SDS011;19459;53.044;8.910;2023-07-29T00:36:18;44.30;;;24.60;;
33094;SDS011;19459;53.044;8.910;2023-07-29T00:38:44;31.27;;;20.17;;
33094;SDS011;19459;53.044;8.910;2023-07-29T00:41:10;44.60;;;23.88;;
33094;SDS011;19459;53.044;8.910;2023-07-29T00:43:38;47.45;;;25.88;;
33094;SDS011;19459;53.044;8.910;2023-07-29T00:46:04;49.40;;;24.50;;
33094;SDS011;19459;53.044;8.910;2023-07-29T00:48:30;40.92;;;25.45;;
33094;SDS011;19459;53.044;8.910;2023-07-29T00:50:56;38.40;;;23.55;;
33094;SDS011;19459;53.044;8.910;2023-07-29T00:53:22;34.63;;;22.35;;
33094;SDS011;19459;53.044;8.910;2023-07-29T00:55:49;36.30;;;23.20;;
33094;SDS011;19459;53.044;8.910;2023-07-29T00:58:15;31.70;;;20.92;;
33094;SDS011;19459;53.044;8.910;2023-07-29T01:00:41;38.05;;;23.58;;
33094;SDS011;19459;53.044;8.910;2023-07-29T01:03:07;39.80;;;23.48;;
33094;SDS011;19459;53.044;8.910;2023-07-29T01:05:36;32.55;;;21.30;;
33094;SDS011;19459;53.044;8.910;2023-07-29T01:14:13;33.03;;;21.02;;
33094;SDS011;19459;53.044;8.910;2023-07-29T01:17:08;44.17;;;25.30;;
33094;SDS011;19459;53.044;8.910;2023-07-29T01:20:00;29.67;;;20.85;;
33094;SDS011;19459;53.044;8.910;2023-07-29T01:22:39;40.05;;;24.40;;
33094;SDS011;19459;53.044;8.910;2023-07-29T01:25:08;43.70;;;24.58;;
33094;SDS011;19459;53.044;8.910;2023-07-29T01:27:34;49.00;;;26.23;;
33094;SDS011;19459;53.044;8.910;2023-07-29T01:29:59;49.97;;;29.50;;
33094;SDS011;19459;53.044;8.910;2023-07-29T01:35:04;51.60;;;29.30;;
33094;SDS011;19459;53.044;8.910;2023-07-29T01:37:55;57.25;;;30.67;;
33094;SDS011;19459;53.044;8.910;2023-07-29T01:40:28;50.47;;;29.23;;
33094;SDS011;19459;53.044;8.910;2023-07-29T01:42:54;63.95;;;30.98;;
33094;SDS011;19459;53.044;8.910;2023-07-29T01:45:24;50.13;;;29.40;;
33094;SDS011;19459;53.044;8.910;2023-07-29T01:47:52;51.13;;;30.08;;
33094;SDS011;19459;53.044;8.910;2023-07-29T01:50:18;45.35;;;26.42;;
33094;SDS011;19459;53.044;8.910;2023-07-29T01:52:43;48.58;;;28.58;;
33094;SDS011;19459;53.044;8.910;2023-07-29T01:55:09;53.20;;;29.42;;
33094;SDS011;19459;53.044;8.910;2023-07-29T01:57:35;55.50;;;28.42;;
33094;SDS011;19459;53.044;8.910;2023-07-29T02:00:01;56.42;;;30.73;;
33094;SDS011;19459;53.044;8.910;2023-07-29T02:02:29;59.38;;;30.77;;
33094;SDS011;19459;53.044;8.910;2023-07-29T02:04:54;53.58;;;29.17;;
33094;SDS011;19459;53.044;8.910;2023-07-29T02:07:21;42.03;;;26.83;;
33094;SDS011;19459;53.044;8.910;2023-07-29T02:09:47;50.30;;;28.85;;
33094;SDS011;19459;53.044;8.910;2023-07-29T02:12:13;58.70;;;30.77;;
33094;SDS011;19459;53.044;8.910;2023-07-29T02:14:38;53.10;;;30.35;;
33094;SDS011;19459;53.044;8.910;2023-07-29T02:17:05;59.35;;;31.15;;
33094;SDS011;19459;53.044;8.910;2023-07-29T02:19:30;53.67;;;31.27;;
33094;SDS011;19459;53.044;8.910;2023-07-29T02:21:57;65.85;;;33.33;;
33094;SDS011;19459;53.044;8.910;2023-07-29T02:24:23;61.33;;;33.90;;
33094;SDS011;19459;53.044;8.910;2023-07-29T02:26:49;52.72;;;30.45;;
33094;SDS011;19459;53.044;8.910;2023-07-29T02:29:15;58.58;;;31.85;;
33094;SDS011;19459;53.044;8.910;2023-07-29T02:31:41;59.15;;;32.08;;
33094;SDS011;19459;53.044;8.910;2023-07-29T02:34:09;59.50;;;33.63;;
33094;SDS011;19459;53.044;8.910;2023-07-29T02:36:35;56.92;;;31.60;;
33094;SDS011;19459;53.044;8.910;2023-07-29T02:39:01;64.53;;;33.75;;
33094;SDS011;19459;53.044;8.910;2023-07-29T02:41:26;72.55;;;34.80;;
33094;SDS011;19459;53.044;8.910;2023-07-29T02:43:52;75.30;;;34.85;;
33094;SDS011;19459;53.044;8.910;2023-07-29T02:46:18;67.32;;;33.38;;
33094;SDS011;19459;53.044;8.910;2023-07-29T02:48:44;51.03;;;31.60;;
33094;SDS011;19459;53.044;8.910;2023-07-29T02:51:10;52.80;;;31.17;;
33094;SDS011;19459;53.044;8.910;2023-07-29T02:53:36;43.38;;;28.77;;
33094;SDS011;19459;53.044;8.910;2023-07-29T02:56:02;63.38;;;32.13;;
33094;SDS011;19459;53.044;8.910;2023-07-29T02:58:29;56.20;;;30.08;;
33094;SDS011;19459;53.044;8.910;2023-07-29T03:01:01;62.33;;;33.10;;
33094;SDS011;19459;53.044;8.910;2023-07-29T03:03:29;61.25;;;33.55;;
33094;SDS011;19459;53.044;8.910;2023-07-29T03:06:02;62.85;;;31.67;;
33094;SDS011;19459;53.044;8.910;2023-07-29T03:08:33;59.33;;;32.33;;
33094;SDS011;19459;53.044;8.910;2023-07-29T03:11:04;61.28;;;32.90;;
33094;SDS011;19459;53.044;8.910;2023-07-29T03:13:32;62.90;;;32.95;;
33094;SDS011;19459;53.044;8.910;2023-07-29T03:16:12;67.60;;;33.97;;
33094;SDS011;19459;53.044;8.910;2023-07-29T03:18:40;58.65;;;33.83;;
33094;SDS011;19459;53.044;8.910;2023-07-29T03:21:07;68.55;;;35.65;;
33094;SDS011;19459;53.044;8.910;2023-07-29T03:23:34;70.47;;;35.30;;
33094;SDS011;19459;53.044;8.910;2023-07-29T03:26:00;58.90;;;33.78;;
33094;SDS011;19459;53.044;8.910;2023-07-29T03:28:34;73.00;;;35.95;;
33094;SDS011;19459;53.044;8.910;2023-07-29T03:31:02;64.00;;;33.80;;
33094;SDS011;19459;53.044;8.910;2023-07-29T03:33:28;67.78;;;35.08;;
33094;SDS011;19459;53.044;8.910;2023-07-29T03:35:54;58.95;;;32.80;;
33094;SDS011;19459;53.044;8.910;2023-07-29T03:38:20;60.47;;;31.90;;
33094;SDS011;19459;53.044;8.910;2023-07-29T03:40:46;56.75;;;30.45;;
33094;SDS011;19459;53.044;8.910;2023-07-29T03:43:12;48.28;;;29.17;;
33094;SDS011;19459;53.044;8.910;2023-07-29T03:45:38;57.38;;;30.48;;
33094;SDS011;19459;53.044;8.910;2023-07-29T03:48:05;47.28;;;27.63;;
33094;SDS011;19459;53.044;8.910;2023-07-29T03:50:32;52.00;;;29.05;;
33094;SDS011;19459;53.044;8.910;2023-07-29T03:53:00;51.60;;;29.70;;
33094;SDS011;19459;53.044;8.910;2023-07-29T03:55:30;51.30;;;28.25;;
33094;SDS011;19459;53.044;8.910;2023-07-29T03:57:57;45.63;;;24.75;;
33094;SDS011;19459;53.044;8.910;2023-07-29T04:00:24;55.38;;;27.90;;
33094;SDS011;19459;53.044;8.910;2023-07-29T04:02:50;60.58;;;31.88;;
33094;SDS011;19459;53.044;8.910;2023-07-29T04:05:16;50.42;;;29.45;;
33094;SDS011;19459;53.044;8.910;2023-07-29T04:07:42;52.03;;;27.90;;
33094;SDS011;19459;53.044;8.910;2023-07-29T04:10:08;65.72;;;33.78;;
33094;SDS011;19459;53.044;8.910;2023-07-29T04:12:35;53.72;;;30.67;;
33094;SDS011;19459;53.044;8.910;2023-07-29T04:15:01;53.63;;;27.83;;
33094;SDS011;19459;53.044;8.910;2023-07-29T04:17:27;54.13;;;28.77;;
33094;SDS011;19459;53.044;8.910;2023-07-29T04:19:53;49.05;;;27.73;;
33094;SDS011;19459;53.044;8.910;2023-07-29T04:22:19;49.42;;;28.40;;
33094;SDS011;19459;53.044;8.910;2023-07-29T04:24:46;47.55;;;27.60;;
33094;SDS011;19459;53.044;8.910;2023-07-29T04:27:12;44.05;;;27.40;;
33094;SDS011;19459;53.044;8.910;2023-07-29T04:29:38;48.40;;;27.50;;
33094;SDS011;19459;53.044;8.910;2023-07-29T04:32:04;49.30;;;27.23;;
33094;SDS011;19459;53.044;8.910;2023-07-29T04:34:31;57.20;;;30.27;;
33094;SDS011;19459;53.044;8.910;2023-07-29T04:36:57;53.55;;;29.10;;
33094;SDS011;19459;53.044;8.910;2023-07-29T04:39:23;45.35;;;25.48;;
33094;SDS011;19459;53.044;8.910;2023-07-29T04:41:49;46.53;;;26.77;;
33094;SDS011;19459;53.044;8.910;2023-07-29T04:44:14;43.58;;;26.98;;
33094;SDS011;19459;53.044;8.910;2023-07-29T04:46:40;51.47;;;27.55;;
33094;SDS011;19459;53.044;8.910;2023-07-29T04:49:06;52.22;;;29.30;;
33094;SDS011;19459;53.044;8.910;2023-07-29T04:51:32;56.35;;;29.95;;
33094;SDS011;19459;53.044;8.910;2023-07-29T04:53:58;45.22;;;27.50;;
33094;SDS011;19459;53.044;8.910;2023-07-29T04:56:24;45.92;;;26.50;;
33094;SDS011;19459;53.044;8.910;2023-07-29T04:58:50;53.45;;;27.20;;
33094;SDS011;19459;53.044;8.910;2023-07-29T05:01:17;42.05;;;24.77;;
33094;SDS011;19459;53.044;8.910;2023-07-29T05:03:43;43.40;;;26.10;;
33094;SDS011;19459;53.044;8.910;2023-07-29T05:06:09;42.88;;;25.50;;
33094;SDS011;19459;53.044;8.910;2023-07-29T05:08:35;41.95;;;24.17;;
33094;SDS011;19459;53.044;8.910;2023-07-29T05:11:01;45.30;;;25.25;;
33094;SDS011;19459;53.044;8.910;2023-07-29T05:13:27;43.05;;;25.10;;
33094;SDS011;19459;53.044;8.910;2023-07-29T05:15:53;47.80;;;25.50;;
33094;SDS011;19459;53.044;8.910;2023-07-29T05:18:19;48.03;;;25.25;;
33094;SDS011;19459;53.044;8.910;2023-07-29T05:20:46;44.15;;;24.48;;
33094;SDS011;19459;53.044;8.910;2023-07-29T05:23:12;44.67;;;23.73;;
33094;SDS011;19459;53.044;8.910;2023-07-29T05:25:38;39.78;;;23.48;;
33094;SDS011;19459;53.044;8.910;2023-07-29T05:28:04;33.13;;;22.73;;
33094;SDS011;19459;53.044;8.910;2023-07-29T05:30:32;38.95;;;23.20;;
33094;SDS011;19459;53.044;8.910;2023-07-29T05:33:02;34.10;;;22.17;;
33094;SDS011;19459;53.044;8.910;2023-07-29T05:35:32;36.40;;;23.60;;
33094;SDS011;19459;53.044;8.910;2023-07-29T05:37:58;33.72;;;21.67;;
33094;SDS011;19459;53.044;8.910;2023-07-29T05:40:24;37.67;;;24.98;;
33094;SDS011;19459;53.044;8.910;2023-07-29T05:42:50;36.50;;;23.30;;
33094;SDS011;19459;53.044;8.910;2023-07-29T05:45:15;41.03;;;22.83;;
33094;SDS011;19459;53.044;8.910;2023-07-29T05:47:41;40.88;;;23.17;;
33094;SDS011;19459;53.044;8.910;2023-07-29T05:50:07;37.95;;;24.45;;
33094;SDS011;19459;53.044;8.910;2023-07-29T05:52:34;31.38;;;22.70;;
33094;SDS011;19459;53.044;8.910;2023-07-29T05:55:00;34.90;;;22.17;;
33094;SDS011;19459;53.044;8.910;2023-07-29T05:57:26;33.67;;;21.92;;
33094;SDS011;19459;53.044;8.910;2023-07-29T05:59:53;34.72;;;21.65;;
33094;SDS011;19459;53.044;8.910;2023-07-29T06:02:18;35.50;;;23.20;;
33094;SDS011;19459;53.044;8.910;2023-07-29T06:04:44;33.20;;;22.58;;
33094;SDS011;19459;53.044;8.910;2023-07-29T06:07:10;33.60;;;23.13;;
33094;SDS011;19459;53.044;8.910;2023-07-29T06:09:36;35.72;;;23.30;;
33094;SDS011;19459;53.044;8.910;2023-07-29T06:12:02;39.08;;;22.77;;
33094;SDS011;19459;53.044;8.910;2023-07-29T06:14:28;38.90;;;23.98;;
33094;SDS011;19459;53.044;8.910;2023-07-29T06:16:53;33.72;;;22.55;;
33094;SDS011;19459;53.044;8.910;2023-07-29T06:19:19;37.53;;;23.35;;
33094;SDS011;19459;53.044;8.910;2023-07-29T06:21:46;37.30;;;24.90;;
33094;SDS011;19459;53.044;8.910;2023-07-29T06:24:12;34.35;;;24.13;;
33094;SDS011;19459;53.044;8.910;2023-07-29T06:26:38;37.92;;;25.35;;
33094;SDS011;19459;53.044;8.910;2023-07-29T06:29:03;31.80;;;25.02;;
33094;SDS011;19459;53.044;8.910;2023-07-29T06:31:32;39.13;;;25.42;;
33094;SDS011;19459;53.044;8.910;2023-07-29T06:33:58;34.72;;;24.88;;
33094;SDS011;19459;53.044;8.910;2023-07-29T06:36:24;36.35;;;26.02;;
33094;SDS011;19459;53.044;8.910;2023-07-29T06:38:49;33.60;;;25.60;;
33094;SDS011;19459;53.044;8.910;2023-07-29T06:41:15;35.35;;;26.25;;
33094;SDS011;19459;53.044;8.910;2023-07-29T06:43:41;35.47;;;26.52;;
33094;SDS011;19459;53.044;8.910;2023-07-29T06:46:07;38.88;;;26.33;;
33094;SDS011;19459;53.044;8.910;2023-07-29T06:48:33;35.47;;;28.38;;
33094;SDS011;19459;53.044;8.910;2023-07-29T06:50:58;34.03;;;24.92;;
33094;SDS011;19459;53.044;8.910;2023-07-29T06:53:26;40.20;;;28.80;;
33094;SDS011;19459;53.044;8.910;2023-07-29T06:55:52;36.53;;;26.70;;
33094;SDS011;19459;53.044;8.910;2023-07-29T06:58:18;37.25;;;28.58;;
33094;SDS011;19459;53.044;8.910;2023-07-29T07:00:44;37.38;;;27.38;;
33094;SDS011;19459;53.044;8.910;2023-07-29T07:03:10;30.92;;;26.05;;
33094;SDS011;19459;53.044;8.910;2023-07-29T07:05:36;33.88;;;25.70;;
33094;SDS011;19459;53.044;8.910;2023-07-29T07:08:02;36.50;;;25.58;;
33094;SDS011;19459;53.044;8.910;2023-07-29T07:10:28;33.13;;;26.83;;
33094;SDS011;19459;53.044;8.910;2023-07-29T07:12:54;34.47;;;25.88;;
33094;SDS011;19459;53.044;8.910;2023-07-29T07:15:19;34.65;;;26.35;;
33094;SDS011;19459;53.044;8.910;2023-07-29T07:17:45;31.88;;;24.92;;
33094;SDS011;19459;53.044;8.910;2023-07-29T07:20:11;28.55;;;23.70;;
33094;SDS011;19459;53.044;8.910;2023-07-29T07:22:37;30.23;;;23.25;;
33094;SDS011;19459;53.044;8.910;2023-07-29T07:25:02;29.92;;;22.13;;
33094;SDS011;19459;53.044;8.910;2023-07-29T07:27:29;28.65;;;21.13;;
33094;SDS011;19459;53.044;8.910;2023-07-29T07:29:54;24.25;;;19.05;;
33094;SDS011;19459;53.044;8.910;2023-07-29T07:32:20;23.10;;;19.33;;
33094;SDS011;19459;53.044;8.910;2023-07-29T07:34:46;28.98;;;18.88;;
33094;SDS011;19459;53.044;8.910;2023-07-29T07:37:12;21.77;;;17.48;;
33094;SDS011;19459;53.044;8.910;2023-07-29T07:39:37;23.90;;;18.67;;
33094;SDS011;19459;53.044;8.910;2023-07-29T07:42:03;20.90;;;16.38;;
33094;SDS011;19459;53.044;8.910;2023-07-29T07:44:29;20.45;;;17.40;;
33094;SDS011;19459;53.044;8.910;2023-07-29T07:46:55;19.17;;;15.88;;
33094;SDS011;19459;53.044;8.910;2023-07-29T07:49:21;18.30;;;15.82;;
33094;SDS011;19459;53.044;8.910;2023-07-29T07:51:47;19.58;;;16.63;;
33094;SDS011;19459;53.044;8.910;2023-07-29T07:54:13;22.45;;;16.55;;
33094;SDS011;19459;53.044;8.910;2023-07-29T07:56:39;17.67;;;14.98;;
33094;SDS011;19459;53.044;8.910;2023-07-29T07:59:05;31.00;;;14.88;;
33094;SDS011;19459;53.044;8.910;2023-07-29T08:01:37;17.42;;;13.80;;
33094;SDS011;19459;53.044;8.910;2023-07-29T08:04:04;16.97;;;13.60;;
33094;SDS011;19459;53.044;8.910;2023-07-29T08:06:30;16.67;;;13.20;;
33094;SDS011;19459;53.044;8.910;2023-07-29T08:08:57;17.67;;;13.32;;
33094;SDS011;19459;53.044;8.910;2023-07-29T08:11:23;16.27;;;14.05;;
33094;SDS011;19459;53.044;8.910;2023-07-29T08:13:49;14.70;;;12.88;;
33094;SDS011;19459;53.044;8.910;2023-07-29T08:16:15;17.40;;;12.60;;
33094;SDS011;19459;53.044;8.910;2023-07-29T08:18:40;16.65;;;12.63;;
33094;SDS011;19459;53.044;8.910;2023-07-29T08:21:06;14.80;;;11.57;;
33094;SDS011;19459;53.044;8.910;2023-07-29T08:23:33;15.60;;;11.45;;
33094;SDS011;19459;53.044;8.910;2023-07-29T08:26:01;13.95;;;10.50;;
33094;SDS011;19459;53.044;8.910;2023-07-29T08:28:30;11.55;;;9.85;;
33094;SDS011;19459;53.044;8.910;2023-07-29T08:31:02;13.25;;;9.55;;
33094;SDS011;19459;53.044;8.910;2023-07-29T08:33:29;11.85;;;10.57;;
33094;SDS011;19459;53.044;8.910;2023-07-29T08:35:55;10.27;;;8.98;;
33094;SDS011;19459;53.044;8.910;2023-07-29T08:38:22;9.35;;;8.35;;
33094;SDS011;19459;53.044;8.910;2023-07-29T08:43:38;13.30;;;7.65;;
33094;SDS011;19459;53.044;8.910;2023-07-29T08:46:18;9.50;;;6.20;;
33094;SDS011;19459;53.044;8.910;2023-07-29T08:48:45;7.85;;;6.43;;
33094;SDS011;19459;53.044;8.910;2023-07-29T08:51:12;15.05;;;7.40;;
33094;SDS011;19459;53.044;8.910;2023-07-29T08:53:38;9.68;;;6.00;;
33094;SDS011;19459;53.044;8.910;2023-07-29T08:56:04;9.52;;;5.47;;
33094;SDS011;19459;53.044;8.910;2023-07-29T08:58:32;6.72;;;5.72;;
33094;SDS011;19459;53.044;8.910;2023-07-29T09:00:59;7.60;;;4.90;;
33094;SDS011;19459;53.044;8.910;2023-07-29T09:03:25;5.50;;;4.35;;
33094;SDS011;19459;53.044;8.910;2023-07-29T09:05:51;7.30;;;4.20;;
33094;SDS011;19459;53.044;8.910;2023-07-29T09:08:18;7.70;;;3.85;;
33094;SDS011;19459;53.044;8.910;2023-07-29T09:10:46;6.18;;;4.20;;
33094;SDS011;19459;53.044;8.910;2023-07-29T09:13:12;8.10;;;5.15;;
33094;SDS011;19459;53.044;8.910;2023-07-29T09:15:38;9.23;;;5.95;;
33094;SDS011;19459;53.044;8.910;2023-07-29T09:18:11;10.15;;;5.63;;
33094;SDS011;19459;53.044;8.910;2023-07-29T09:20:41;7.07;;;5.63;;
33094;SDS011;19459;53.044;8.910;2023-07-29T09:23:08;8.38;;;5.70;;
33094;SDS011;19459;53.044;8.910;2023-07-29T09:25:35;8.82;;;5.07;;
33094;SDS011;19459;53.044;8.910;2023-07-29T09:28:10;10.70;;;5.38;;
33094;SDS011;19459;53.044;8.910;2023-07-29T09:30:38;8.68;;;6.35;;
33094;SDS011;19459;53.044;8.910;2023-07-29T09:33:06;7.32;;;5.43;;
33094;SDS011;19459;53.044;8.910;2023-07-29T09:35:34;8.55;;;6.00;;
33094;SDS011;19459;53.044;8.910;2023-07-29T09:38:01;5.82;;;5.05;;
33094;SDS011;19459;53.044;8.910;2023-07-29T09:40:38;9.75;;;6.05;;
33094;SDS011;19459;53.044;8.910;2023-07-29T09:45:35;8.40;;;6.47;;
33094;SDS011;19459;53.044;8.910;2023-07-29T09:48:03;8.30;;;6.30;;
33094;SDS011;19459;53.044;8.910;2023-07-29T09:50:34;8.95;;;5.85;;
33094;SDS011;19459;53.044;8.910;2023-07-29T09:53:02;9.30;;;6.97;;
33094;SDS011;19459;53.044;8.910;2023-07-29T09:55:28;10.25;;;7.35;;
33094;SDS011;19459;53.044;8.910;2023-07-29T09:57:58;9.13;;;6.15;;
33094;SDS011;19459;53.044;8.910;2023-07-29T10:00:33;7.80;;;5.40;;
33094;SDS011;19459;53.044;8.910;2023-07-29T10:02:59;4.90;;;4.38;;
33094;SDS011;19459;53.044;8.910;2023-07-29T10:05:26;7.47;;;4.00;;
33094;SDS011;19459;53.044;8.910;2023-07-29T10:07:53;9.73;;;4.35;;
33094;SDS011;19459;53.044;8.910;2023-07-29T10:10:20;7.70;;;4.55;;
33094;SDS011;19459;53.044;8.910;2023-07-29T10:12:46;4.50;;;3.90;;
33094;SDS011;19459;53.044;8.910;2023-07-29T10:15:12;6.25;;;3.88;;
33094;SDS011;19459;53.044;8.910;2023-07-29T10:17:41;4.57;;;3.75;;
33094;SDS011;19459;53.044;8.910;2023-07-29T10:20:08;3.92;;;3.55;;
33094;SDS011;19459;53.044;8.910;2023-07-29T10:22:40;5.53;;;3.22;;
33094;SDS011;19459;53.044;8.910;2023-07-29T10:25:08;3.58;;;3.15;;
33094;SDS011;19459;53.044;8.910;2023-07-29T10:27:43;4.72;;;3.58;;
33094;SDS011;19459;53.044;8.910;2023-07-29T10:30:14;5.32;;;2.78;;
33094;SDS011;19459;53.044;8.910;2023-07-29T10:32:41;3.25;;;2.90;;
33094;SDS011;19459;53.044;8.910;2023-07-29T10:35:09;6.60;;;2.53;;
33094;SDS011;19459;53.044;8.910;2023-07-29T10:37:37;4.55;;;3.03;;
33094;SDS011;19459;53.044;8.910;2023-07-29T10:40:05;3.58;;;3.13;;
33094;SDS011;19459;53.044;8.910;2023-07-29T10:42:36;4.03;;;3.65;;
33094;SDS011;19459;53.044;8.910;2023-07-29T10:45:19;3.92;;;3.63;;
33094;SDS011;19459;53.044;8.910;2023-07-29T10:47:46;6.88;;;3.63;;
33094;SDS011;19459;53.044;8.910;2023-07-29T10:50:16;4.88;;;3.08;;
33094;SDS011;19459;53.044;8.910;2023-07-29T10:52:48;4.03;;;3.42;;
33094;SDS011;19459;53.044;8.910;2023-07-29T10:58:06;4.70;;;3.30;;
33094;SDS011;19459;53.044;8.910;2023-07-29T11:00:41;3.53;;;2.85;;
33094;SDS011;19459;53.044;8.910;2023-07-29T11:03:08;6.65;;;2.97;;
33094;SDS011;19459;53.044;8.910;2023-07-29T11:06:08;6.95;;;3.30;;
33094;SDS011;19459;53.044;8.910;2023-07-29T11:08:30;4.82;;;3.38;;
33094;SDS011;19459;53.044;8.910;2023-07-29T11:13:36;3.40;;;3.00;;
33094;SDS011;19459;53.044;8.910;2023-07-29T11:16:03;5.50;;;2.85;;
33094;SDS011;19459;53.044;8.910;2023-07-29T11:18:35;3.65;;;2.22;;
33094;SDS011;19459;53.044;8.910;2023-07-29T11:21:01;4.30;;;2.75;;
33094;SDS011;19459;53.044;8.910;2023-07-29T11:23:30;3.67;;;2.08;;
33094;SDS011;19459;53.044;8.910;2023-07-29T11:26:01;2.15;;;1.77;;
33094;SDS011;19459;53.044;8.910;2023-07-29T11:28:29;3.45;;;2.10;;
33094;SDS011;19459;53.044;8.910;2023-07-29T11:30:56;3.40;;;2.20;;
33094;SDS011;19459;53.044;8.910;2023-07-29T11:33:26;5.35;;;1.90;;
33094;SDS011;19459;53.044;8.910;2023-07-29T11:35:53;3.40;;;2.38;;
33094;SDS011;19459;53.044;8.910;2023-07-29T11:38:20;4.00;;;2.65;;
33094;SDS011;19459;53.044;8.910;2023-07-29T11:40:54;4.28;;;2.42;;
33094;SDS011;19459;53.044;8.910;2023-07-29T11:43:25;3.05;;;2.28;;
33094;SDS011;19459;53.044;8.910;2023-07-29T11:45:52;4.07;;;2.08;;
33094;SDS011;19459;53.044;8.910;2023-07-29T11:48:18;6.53;;;2.60;;
33094;SDS011;19459;53.044;8.910;2023-07-29T11:50:56;3.03;;;2.35;;
33094;SDS011;19459;53.044;8.910;2023-07-29T11:53:31;4.85;;;2.50;;
33094;SDS011;19459;53.044;8.910;2023-07-29T11:55:58;2.88;;;2.30;;
33094;SDS011;19459;53.044;8.910;2023-07-29T11:58:26;3.45;;;2.30;;
33094;SDS011;19459;53.044;8.910;2023-07-29T12:00:54;3.08;;;2.38;;
33094;SDS011;19459;53.044;8.910;2023-07-29T12:03:21;3.38;;;2.88;;
33094;SDS011;19459;53.044;8.910;2023-07-29T12:06:00;7.22;;;2.50;;
33094;SDS011;19459;53.044;8.910;2023-07-29T12:08:26;2.47;;;2.28;;
33094;SDS011;19459;53.044;8.910;2023-07-29T12:10:53;3.25;;;2.20;;
33094;SDS011;19459;53.044;8.910;2023-07-29T12:13:23;5.10;;;2.60;;
33094;SDS011;19459;53.044;8.910;2023-07-29T12:15:50;2.47;;;1.98;;
33094;SDS011;19459;53.044;8.910;2023-07-29T12:18:16;5.28;;;1.83;;
33094;SDS011;19459;53.044;8.910;2023-07-29T12:20:41;4.68;;;2.13;;
33094;SDS011;19459;53.044;8.910;2023-07-29T12:23:08;3.22;;;2.03;;
33094;SDS011;19459;53.044;8.910;2023-07-29T12:25:34;4.22;;;2.08;;
33094;SDS011;19459;53.044;8.910;2023-07-29T12:28:06;2.40;;;2.03;;
33094;SDS011;19459;53.044;8.910;2023-07-29T12:30:32;3.28;;;2.17;;
33094;SDS011;19459;53.044;8.910;2023-07-29T12:32:58;2.97;;;2.13;;
33094;SDS011;19459;53.044;8.910;2023-07-29T12:35:24;2.45;;;2.00;;
33094;SDS011;19459;53.044;8.910;2023-07-29T12:38:00;3.70;;;2.20;;
33094;SDS011;19459;53.044;8.910;2023-07-29T12:40:28;7.90;;;2.20;;
33094;SDS011;19459;53.044;8.910;2023-07-29T12:42:54;3.85;;;1.52;;
33094;SDS011;19459;53.044;8.910;2023-07-29T12:45:20;3.85;;;1.55;;
33094;SDS011;19459;53.044;8.910;2023-07-29T12:47:51;2.65;;;1.60;;
33094;SDS011;19459;53.044;8.910;2023-07-29T12:50:17;2.92;;;2.35;;
33094;SDS011;19459;53.044;8.910;2023-07-29T12:52:43;2.92;;;1.50;;
33094;SDS011;19459;53.044;8.910;2023-07-29T12:55:08;4.07;;;2.10;;
33094;SDS011;19459;53.044;8.910;2023-07-29T12:57:38;3.75;;;1.95;;
33094;SDS011;19459;53.044;8.910;2023-07-29T13:00:06;2.05;;;1.63;;
33094;SDS011;19459;53.044;8.910;2023-07-29T13:02:34;4.13;;;1.90;;
33094;SDS011;19459;53.044;8.910;2023-07-29T13:04:59;3.75;;;2.08;;
33094;SDS011;19459;53.044;8.910;2023-07-29T13:07:25;8.13;;;2.17;;
33094;SDS011;19459;53.044;8.910;2023-07-29T13:09:51;7.72;;;1.50;;
33094;SDS011;19459;53.044;8.910;2023-07-29T13:12:17;4.32;;;1.85;;
33094;SDS011;19459;53.044;8.910;2023-07-29T13:14:42;4.78;;;1.88;;
33094;SDS011;19459;53.044;8.910;2023-07-29T13:17:08;4.22;;;1.60;;
33094;SDS011;19459;53.044;8.910;2023-07-29T13:19:34;4.10;;;1.90;;
33094;SDS011;19459;53.044;8.910;2023-07-29T13:22:00;4.18;;;1.73;;
33094;SDS011;19459;53.044;8.910;2023-07-29T13:24:27;6.38;;;2.20;;
33094;SDS011;19459;53.044;8.910;2023-07-29T13:26:53;4.10;;;1.40;;
33094;SDS011;19459;53.044;8.910;2023-07-29T13:29:19;1.60;;;1.50;;
33094;SDS011;19459;53.044;8.910;2023-07-29T13:31:44;1.92;;;1.35;;
33094;SDS011;19459;53.044;8.910;2023-07-29T13:34:10;2.60;;;1.50;;
33094;SDS011;19459;53.044;8.910;2023-07-29T13:36:36;4.53;;;1.73;;
33094;SDS011;19459;53.044;8.910;2023-07-29T13:39:02;6.30;;;1.83;;
33094;SDS011;19459;53.044;8.910;2023-07-29T13:41:27;2.92;;;1.90;;
33094;SDS011;19459;53.044;8.910;2023-07-29T13:43:53;5.03;;;1.52;;
33094;SDS011;19459;53.044;8.910;2023-07-29T13:46:19;14.63;;;1.75;;
33094;SDS011;19459;53.044;8.910;2023-07-29T13:48:46;4.55;;;2.13;;
33094;SDS011;19459;53.044;8.910;2023-07-29T13:51:12;2.63;;;1.85;;
33094;SDS011;19459;53.044;8.910;2023-07-29T13:53:40;3.63;;;1.55;;
33094;SDS011;19459;53.044;8.910;2023-07-29T13:56:06;3.88;;;2.08;;
33094;SDS011;19459;53.044;8.910;2023-07-29T13:58:32;5.00;;;1.50;;
33094;SDS011;19459;53.044;8.910;2023-07-29T14:00:58;5.18;;;1.63;;
33094;SDS011;19459;53.044;8.910;2023-07-29T14:03:23;3.35;;;1.88;;
33094;SDS011;19459;53.044;8.910;2023-07-29T14:05:49;1.95;;;1.48;;
33094;SDS011;19459;53.044;8.910;2023-07-29T14:08:15;6.43;;;1.60;;
33094;SDS011;19459;53.044;8.910;2023-07-29T14:10:41;2.63;;;1.98;;
33094;SDS011;19459;53.044;8.910;2023-07-29T14:13:06;3.65;;;1.73;;
33094;SDS011;19459;53.044;8.910;2023-07-29T14:15:32;4.05;;;1.50;;
33094;SDS011;19459;53.044;8.910;2023-07-29T14:17:58;1.98;;;1.65;;
33094;SDS011;19459;53.044;8.910;2023-07-29T14:20:24;2.92;;;1.42;;
33094;SDS011;19459;53.044;8.910;2023-07-29T14:22:50;3.70;;;2.13;;
33094;SDS011;19459;53.044;8.910;2023-07-29T14:25:16;1.67;;;1.27;;
33094;SDS011;19459;53.044;8.910;2023-07-29T14:27:41;2.20;;;1.55;;
33094;SDS011;19459;53.044;8.910;2023-07-29T14:30:07;2.42;;;1.50;;
33094;SDS011;19459;53.044;8.910;2023-07-29T14:32:33;1.25;;;1.15;;
33094;SDS011;19459;53.044;8.910;2023-07-29T14:34:59;3.25;;;1.40;;
33094;SDS011;19459;53.044;8.910;2023-07-29T14:37:29;4.07;;;1.55;;
33094;SDS011;19459;53.044;8.910;2023-07-29T14:39:56;3.38;;;2.00;;
33094;SDS011;19459;53.044;8.910;2023-07-29T14:42:25;2.28;;;1.63;;
33094;SDS011;19459;53.044;8.910;2023-07-29T14:44:52;1.67;;;1.55;;
33094;SDS011;19459;53.044;8.910;2023-07-29T14:47:18;3.67;;;3.00;;
33094;SDS011;19459;53.044;8.910;2023-07-29T14:49:44;4.57;;;1.98;;
33094;SDS011;19459;53.044;8.910;2023-07-29T14:52:10;4.28;;;2.03;;
33094;SDS011;19459;53.044;8.910;2023-07-29T14:54:36;2.30;;;1.95;;